Time;durP1;ratioP1;P1;durP2;ratioP2;P2;SDS_P1;SDS_P2;PMS_P1;PMS_P2;Temp;Humidity;BMP_temperature;BMP_pressure;BME280_temperature;BME280_humidity;BME280_pressure;Samples;Min_cycle;Max_cycle;Signal;HPM_P1;HPM_P2
2024/01/15 00:01:27;;;;;;;17.75;9.07;;;;;;;;;;5093418;28;20040;-62
2024/01/15 00:03:52;;;;;;;15.57;8.45;;;;;;;;;;5093672;28;20051;-60
2024/01/15 00:06:18;;;;;;;14.43;8.13;;;;;;;;;;5093477;28;20036;-61
2024/01/15 00:08:43;;;;;;;17.48;8.02;;;;;;;;;;5093721;28;20059;-59
2024/01/15 00:11:09;;;;;;;15.35;8.73;;;;;;;;;;5093311;28;20039;-63
2024/01/15 00:13:34;;;;;;;17.83;9.25;;;;;;;;;;5091377;28;20058;-57
2024/01/15 00:16:00;;;;;;;16.90;8.45;;;;;;;;;;5046741;28;20063;-62
2024/01/15 00:18:26;;;;;;;17.10;9.02;;;;;;;;;;5091206;28;20458;-62
2024/01/15 00:20:51;;;;;;;16.55;8.80;;;;;;;;;;5092910;28;20036;-60
2024/01/15 00:23:17;;;;;;;13.35;8.43;;;;;;;;;;5093267;28;20166;-61
2024/01/15 00:25:42;;;;;;;15.02;8.57;;;;;;;;;;5092908;28;20123;-62
2024/01/15 00:28:08;;;;;;;17.60;8.95;;;;;;;;;;5093191;28;20048;-60
2024/01/15 00:30:34;;;;;;;16.25;9.00;;;;;;;;;;5093045;28;20131;-61
2024/01/15 00:32:59;;;;;;;12.38;8.40;;;;;;;;;;5092897;28;20043;-61
2024/01/15 00:35:25;;;;;;;16.23;7.80;;;;;;;;;;5092980;28;20089;-62
2024/01/15 00:37:50;;;;;;;20.40;9.65;;;;;;;;;;5092856;28;20493;-61
2024/01/15 00:40:16;;;;;;;15.75;8.70;;;;;;;;;;5092906;28;20080;-61
2024/01/15 00:42:43;;;;;;;17.88;8.77;;;;;;;;;;5092629;28;20036;-60
2024/01/15 00:45:09;;;;;;;17.75;9.43;;;;;;;;;;5092840;28;20544;-60
2024/01/15 00:47:35;;;;;;;14.70;8.80;;;;;;;;;;5092920;28;20020;-61
2024/01/15 00:50:01;;;;;;;20.27;9.45;;;;;;;;;;5091446;28;20151;-60
2024/01/15 00:52:27;;;;;;;17.92;8.68;;;;;;;;;;5091826;28;20032;-61
2024/01/15 00:54:52;;;;;;;14.85;8.20;;;;;;;;;;5091115;28;20054;-60
2024/01/15 00:57:19;;;;;;;15.77;8.05;;;;;;;;;;5092779;28;20043;-62
2024/01/15 00:59:44;;;;;;;20.17;9.35;;;;;;;;;;5092409;28;20120;-60
2024/01/15 01:02:10;;;;;;;14.52;8.45;;;;;;;;;;5092633;28;20553;-62
2024/01/15 01:04:36;;;;;;;15.77;8.93;;;;;;;;;;5092629;28;20032;-61
2024/01/15 01:07:01;;;;;;;16.77;8.45;;;;;;;;;;5092149;28;20063;-60
2024/01/15 01:09:29;;;;;;;19.30;9.00;;;;;;;;;;5092599;28;20050;-61
2024/01/15 01:11:55;;;;;;;15.98;8.82;;;;;;;;;;5092389;28;20075;-61
2024/01/15 01:14:21;;;;;;;19.00;9.75;;;;;;;;;;5090382;28;20064;-61
2024/01/15 01:16:47;;;;;;;13.07;8.43;;;;;;;;;;5084438;28;20038;-61
2024/01/15 01:19:12;;;;;;;14.82;9.18;;;;;;;;;;5091786;28;20039;-59
2024/01/15 01:21:38;;;;;;;19.45;10.02;;;;;;;;;;5091630;28;20039;-61
2024/01/15 01:24:03;;;;;;;16.98;8.88;;;;;;;;;;5090359;28;20498;-62
2024/01/15 01:26:30;;;;;;;18.75;9.77;;;;;;;;;;5090599;28;20405;-62
2024/01/15 01:28:55;;;;;;;18.15;9.48;;;;;;;;;;5091836;28;20044;-60
2024/01/15 01:31:21;;;;;;;19.25;9.95;;;;;;;;;;5091703;28;20024;-61
2024/01/15 01:33:46;;;;;;;19.50;10.10;;;;;;;;;;5090381;28;20131;-61
2024/01/15 01:36:12;;;;;;;18.08;9.70;;;;;;;;;;5091609;28;20028;-64
2024/01/15 01:38:40;;;;;;;19.02;9.85;;;;;;;;;;5092017;28;20056;-59
2024/01/15 01:41:05;;;;;;;16.88;10.18;;;;;;;;;;5091185;28;20044;-60
2024/01/15 01:43:31;;;;;;;22.30;9.68;;;;;;;;;;5090438;28;20043;-59
2024/01/15 01:45:58;;;;;;;19.38;10.60;;;;;;;;;;5091640;28;20428;-60
2024/01/15 01:48:25;;;;;;;18.00;9.85;;;;;;;;;;5090956;28;20063;-60
2024/01/15 01:50:50;;;;;;;18.10;9.68;;;;;;;;;;5091548;28;20032;-61
2024/01/15 01:53:16;;;;;;;21.60;10.60;;;;;;;;;;5090308;28;20050;-61
2024/01/15 01:55:42;;;;;;;18.70;10.30;;;;;;;;;;5089960;28;20073;-62
2024/01/15 01:58:07;;;;;;;17.70;9.35;;;;;;;;;;5089515;28;20043;-60
2024/01/15 02:00:34;;;;;;;16.90;8.93;;;;;;;;;;5091268;28;20144;-60
2024/01/15 02:02:59;;;;;;;17.33;9.45;;;;;;;;;;5082740;28;20032;-58
2024/01/15 02:05:26;;;;;;;17.05;9.35;;;;;;;;;;5096711;28;20085;-63
2024/01/15 02:07:52;;;;;;;14.88;9.10;;;;;;;;;;5097931;28;20060;-61
2024/01/15 02:10:18;;;;;;;16.95;9.65;;;;;;;;;;5098095;28;20043;-59
2024/01/15 02:12:44;;;;;;;20.27;11.10;;;;;;;;;;5097808;28;20115;-62
2024/01/15 02:15:10;;;;;;;18.30;10.02;;;;;;;;;;5097717;28;20538;-59
2024/01/15 02:17:55;;;;;;;20.02;9.63;;;;;;;;;;5094634;28;20043;-62
2024/01/15 02:20:21;;;;;;;16.38;9.88;;;;;;;;;;5097644;28;20040;-62
2024/01/15 02:22:46;;;;;;;20.02;10.60;;;;;;;;;;5097363;28;20497;-61
2024/01/15 02:25:12;;;;;;;20.02;10.73;;;;;;;;;;5096818;28;20032;-61
2024/01/15 02:27:38;;;;;;;19.83;10.13;;;;;;;;;;5063003;28;20042;-62
2024/01/15 02:30:04;;;;;;;19.92;10.50;;;;;;;;;;5098231;28;20043;-61
2024/01/15 02:32:29;;;;;;;20.75;10.75;;;;;;;;;;5097673;28;20145;-62
2024/01/15 02:34:55;;;;;;;20.63;8.93;;;;;;;;;;5096512;28;20118;-60
2024/01/15 02:37:21;;;;;;;17.15;9.68;;;;;;;;;;5096574;28;20035;-60
2024/01/15 02:39:47;;;;;;;19.77;10.20;;;;;;;;;;5097226;28;20478;-58
2024/01/15 02:42:12;;;;;;;19.88;10.55;;;;;;;;;;5097694;28;20067;-62
2024/01/15 02:44:38;;;;;;;21.60;10.65;;;;;;;;;;5097146;28;20035;-62
2024/01/15 02:47:04;;;;;;;18.48;10.57;;;;;;;;;;5097539;28;20040;-59
2024/01/15 02:49:29;;;;;;;22.92;11.73;;;;;;;;;;5097776;28;20048;-59
2024/01/15 02:51:55;;;;;;;15.68;8.23;;;;;;;;;;5096068;28;20205;-62
2024/01/15 02:54:20;;;;;;;22.30;10.48;;;;;;;;;;5097550;28;20378;-60
2024/01/15 02:56:46;;;;;;;18.40;10.73;;;;;;;;;;5097493;28;20414;-62
2024/01/15 02:59:12;;;;;;;17.02;9.27;;;;;;;;;;5097804;28;20036;-61
2024/01/15 03:01:37;;;;;;;24.58;11.10;;;;;;;;;;5095622;28;20055;-61
2024/01/15 03:04:03;;;;;;;19.95;10.65;;;;;;;;;;5095713;28;20063;-60
2024/01/15 03:06:28;;;;;;;21.58;10.38;;;;;;;;;;5095873;28;20043;-62
2024/01/15 03:08:54;;;;;;;19.05;10.23;;;;;;;;;;5096957;28;20246;-61
2024/01/15 03:11:19;;;;;;;19.05;11.23;;;;;;;;;;5097451;28;20065;-59
2024/01/15 03:13:45;;;;;;;24.15;10.68;;;;;;;;;;5097675;28;20036;-62
2024/01/15 03:16:11;;;;;;;19.27;10.15;;;;;;;;;;5094835;28;20032;-60
2024/01/15 03:18:36;;;;;;;20.23;10.98;;;;;;;;;;5092857;28;20108;-60
2024/01/15 03:21:02;;;;;;;20.73;11.00;;;;;;;;;;5094472;28;20047;-60
2024/01/15 03:23:28;;;;;;;18.38;10.88;;;;;;;;;;5092627;28;20550;-60
2024/01/15 03:25:53;;;;;;;17.98;9.52;;;;;;;;;;5094331;28;20436;-62
2024/01/15 03:28:19;;;;;;;15.35;9.32;;;;;;;;;;5094032;28;20391;-61
2024/01/15 03:30:45;;;;;;;21.73;10.48;;;;;;;;;;5092589;28;20039;-62
2024/01/15 03:33:10;;;;;;;21.35;11.30;;;;;;;;;;5093918;28;20097;-60
2024/01/15 03:35:36;;;;;;;19.23;9.88;;;;;;;;;;5059252;28;20084;-61
2024/01/15 03:38:02;;;;;;;23.77;11.20;;;;;;;;;;5093957;28;20502;-61
2024/01/15 03:40:27;;;;;;;20.17;10.50;;;;;;;;;;5093547;28;20075;-60
2024/01/15 03:42:53;;;;;;;21.58;11.18;;;;;;;;;;5093540;28;20414;-61
2024/01/15 03:45:19;;;;;;;21.42;9.52;;;;;;;;;;5093873;28;20067;-59
2024/01/15 03:47:45;;;;;;;21.20;12.05;;;;;;;;;;5093421;28;20051;-60
2024/01/15 03:50:10;;;;;;;17.25;9.95;;;;;;;;;;5091211;28;20032;-60
2024/01/15 03:52:36;;;;;;;21.30;11.20;;;;;;;;;;5093145;28;20119;-63
2024/01/15 03:55:01;;;;;;;23.38;11.43;;;;;;;;;;5075910;28;20032;-61
2024/01/15 03:57:28;;;;;;;22.10;11.68;;;;;;;;;;5093006;28;20028;-61
2024/01/15 03:59:54;;;;;;;23.85;11.52;;;;;;;;;;5093027;28;20048;-60
2024/01/15 04:02:20;;;;;;;22.02;11.68;;;;;;;;;;5091431;28;20525;-61
2024/01/15 04:04:45;;;;;;;22.23;11.50;;;;;;;;;;5092527;28;20432;-61
2024/01/15 04:07:11;;;;;;;22.48;11.60;;;;;;;;;;5092975;28;20131;-62
2024/01/15 04:09:36;;;;;;;20.60;11.55;;;;;;;;;;5091264;28;20066;-62
2024/01/15 04:12:02;;;;;;;23.52;11.95;;;;;;;;;;5093153;28;20438;-62
2024/01/15 04:14:28;;;;;;;20.35;11.45;;;;;;;;;;5093228;28;20391;-61
2024/01/15 04:16:54;;;;;;;24.77;11.88;;;;;;;;;;5092823;28;20032;-62
2024/01/15 04:19:19;;;;;;;21.70;11.60;;;;;;;;;;5089707;28;20032;-60
2024/01/15 04:21:45;;;;;;;22.08;11.40;;;;;;;;;;5092826;28;20047;-61
2024/01/15 04:24:11;;;;;;;23.48;12.10;;;;;;;;;;5091953;28;20040;-59
2024/01/15 04:26:36;;;;;;;22.58;10.95;;;;;;;;;;5092445;28;20036;-60
2024/01/15 04:29:02;;;;;;;23.55;11.73;;;;;;;;;;5091900;28;20040;-61
2024/01/15 04:31:28;;;;;;;24.27;12.55;;;;;;;;;;5092332;28;20055;-63
2024/01/15 04:33:53;;;;;;;20.83;12.05;;;;;;;;;;5091173;28;20120;-60
2024/01/15 04:36:19;;;;;;;19.38;10.85;;;;;;;;;;5092558;28;20119;-59
2024/01/15 04:38:45;;;;;;;21.98;12.07;;;;;;;;;;5093019;28;20047;-59
2024/01/15 04:41:12;;;;;;;22.65;11.93;;;;;;;;;;5092176;28;20396;-65
2024/01/15 04:43:37;;;;;;;22.40;12.05;;;;;;;;;;5091203;28;20082;-61
2024/01/15 04:46:05;;;;;;;23.30;12.73;;;;;;;;;;5091891;28;20060;-62
2024/01/15 04:48:30;;;;;;;23.27;12.32;;;;;;;;;;5088761;28;20094;-60
2024/01/15 04:50:56;;;;;;;25.83;12.80;;;;;;;;;;5091783;28;20036;-59
2024/01/15 04:53:22;;;;;;;22.80;12.60;;;;;;;;;;5090762;28;20036;-59
2024/01/15 04:55:47;;;;;;;27.20;13.02;;;;;;;;;;5092496;28;20024;-60
2024/01/15 04:58:13;;;;;;;22.50;12.32;;;;;;;;;;5092388;28;20085;-60
2024/01/15 05:00:39;;;;;;;24.50;14.13;;;;;;;;;;5090888;28;20040;-61
2024/01/15 05:03:04;;;;;;;26.27;13.30;;;;;;;;;;5090852;28;20036;-60
2024/01/15 05:05:30;;;;;;;26.67;13.25;;;;;;;;;;5092429;28;20040;-59
2024/01/15 05:07:56;;;;;;;27.58;13.10;;;;;;;;;;5091435;28;20517;-60
2024/01/15 05:10:21;;;;;;;24.17;13.63;;;;;;;;;;5092374;28;20043;-60
2024/01/15 05:12:47;;;;;;;25.30;14.02;;;;;;;;;;5092060;28;20052;-60
2024/01/15 05:15:12;;;;;;;22.40;12.32;;;;;;;;;;5090764;28;20052;-60
2024/01/15 05:17:38;;;;;;;24.50;13.23;;;;;;;;;;5088191;28;20127;-63
2024/01/15 05:20:04;;;;;;;26.33;13.52;;;;;;;;;;5072066;28;20067;-60
2024/01/15 05:22:30;;;;;;;24.17;12.43;;;;;;;;;;5071075;28;20048;-60
2024/01/15 05:24:55;;;;;;;25.15;12.88;;;;;;;;;;5070602;28;20085;-62
2024/01/15 05:27:21;;;;;;;27.88;12.55;;;;;;;;;;5071910;28;20081;-62
2024/01/15 05:29:46;;;;;;;27.77;13.85;;;;;;;;;;5072083;28;20036;-61
2024/01/15 05:32:12;;;;;;;24.02;12.60;;;;;;;;;;5071746;28;20047;-62
2024/01/15 05:34:38;;;;;;;26.88;12.85;;;;;;;;;;5069920;28;20053;-61
2024/01/15 05:37:03;;;;;;;22.95;12.85;;;;;;;;;;5069639;28;20044;-62
2024/01/15 05:39:29;;;;;;;25.80;12.57;;;;;;;;;;5068460;28;20040;-62
2024/01/15 05:41:54;;;;;;;23.33;11.73;;;;;;;;;;5069918;28;20082;-63
2024/01/15 05:44:20;;;;;;;22.83;12.52;;;;;;;;;;5084087;28;20047;-60
2024/01/15 05:46:45;;;;;;;24.15;12.52;;;;;;;;;;5090362;28;20501;-62
2024/01/15 05:49:11;;;;;;;22.75;11.68;;;;;;;;;;5090412;28;20040;-60
2024/01/15 05:51:37;;;;;;;24.92;13.20;;;;;;;;;;5091206;28;20353;-62
2024/01/15 05:54:02;;;;;;;23.65;12.38;;;;;;;;;;5077523;28;20040;-62
2024/01/15 05:56:28;;;;;;;26.05;12.77;;;;;;;;;;5087828;28;20429;-61
2024/01/15 05:58:53;;;;;;;27.08;12.77;;;;;;;;;;5091551;28;20040;-60
2024/01/15 06:01:19;;;;;;;23.98;12.90;;;;;;;;;;5091249;28;20047;-62
2024/01/15 06:03:45;;;;;;;22.75;11.82;;;;;;;;;;5091133;28;20537;-61
2024/01/15 06:06:10;;;;;;;22.65;12.63;;;;;;;;;;5091088;28;20028;-60
2024/01/15 06:08:36;;;;;;;22.25;11.68;;;;;;;;;;5091242;28;20095;-60
2024/01/15 06:11:03;;;;;;;22.52;12.32;;;;;;;;;;5091228;28;20032;-61
2024/01/15 06:13:28;;;;;;;25.70;13.48;;;;;;;;;;5091461;28;20051;-61
2024/01/15 06:15:54;;;;;;;23.75;12.95;;;;;;;;;;5091008;28;20040;-61
2024/01/15 06:18:19;;;;;;;27.23;14.07;;;;;;;;;;5082085;28;20037;-61
2024/01/15 06:20:45;;;;;;;22.45;12.60;;;;;;;;;;5072505;28;20093;-63
2024/01/15 06:23:10;;;;;;;21.60;13.15;;;;;;;;;;5090918;28;20409;-60
2024/01/15 06:25:36;;;;;;;22.27;11.95;;;;;;;;;;5090787;28;20451;-60
2024/01/15 06:28:02;;;;;;;26.65;13.63;;;;;;;;;;5091119;28;20032;-60
2024/01/15 06:30:27;;;;;;;23.65;12.23;;;;;;;;;;5089159;28;20036;-60
2024/01/15 06:32:53;;;;;;;23.33;12.88;;;;;;;;;;5090050;28;20505;-61
2024/01/15 06:35:18;;;;;;;22.48;12.57;;;;;;;;;;5089676;28;20036;-60
2024/01/15 06:37:44;;;;;;;28.83;13.60;;;;;;;;;;5090966;28;20028;-59
2024/01/15 06:40:10;;;;;;;28.33;15.02;;;;;;;;;;5090566;28;20089;-61
2024/01/15 06:42:35;;;;;;;27.08;12.85;;;;;;;;;;5090972;28;20032;-63
2024/01/15 06:45:01;;;;;;;22.83;11.80;;;;;;;;;;5089361;28;20582;-62
2024/01/15 06:47:27;;;;;;;26.17;12.80;;;;;;;;;;5088989;28;20067;-61
2024/01/15 06:49:52;;;;;;;23.40;11.52;;;;;;;;;;5089629;28;20516;-63
2024/01/15 06:52:18;;;;;;;25.65;12.93;;;;;;;;;;5093349;28;20032;-62
2024/01/15 06:54:43;;;;;;;24.70;12.90;;;;;;;;;;5094423;28;20115;-61
2024/01/15 06:57:09;;;;;;;23.23;12.63;;;;;;;;;;5093657;28;20035;-65
2024/01/15 06:59:38;;;;;;;23.52;12.63;;;;;;;;;;5094635;28;20089;-60
2024/01/15 07:02:03;;;;;;;23.75;12.88;;;;;;;;;;5094034;28;20055;-62
2024/01/15 07:04:29;;;;;;;25.80;12.63;;;;;;;;;;5094443;28;20397;-60
2024/01/15 07:06:55;;;;;;;25.83;13.00;;;;;;;;;;5093123;28;20547;-59
2024/01/15 07:09:20;;;;;;;25.35;12.82;;;;;;;;;;5094236;28;20047;-61
2024/01/15 07:11:46;;;;;;;23.65;12.88;;;;;;;;;;5093384;28;20039;-63
2024/01/15 07:14:12;;;;;;;23.65;12.57;;;;;;;;;;5094619;28;20093;-60
2024/01/15 07:16:38;;;;;;;26.67;12.23;;;;;;;;;;5093743;28;20035;-61
2024/01/15 07:19:04;;;;;;;25.20;12.93;;;;;;;;;;5078727;28;20131;-58
2024/01/15 07:21:30;;;;;;;22.63;12.57;;;;;;;;;;5090103;28;20150;-60
2024/01/15 07:23:56;;;;;;;23.45;13.13;;;;;;;;;;5094509;28;20130;-59
2024/01/15 07:26:22;;;;;;;22.67;12.75;;;;;;;;;;5094272;28;20036;-60
2024/01/15 07:28:48;;;;;;;21.20;10.82;;;;;;;;;;5094005;28;20036;-61
2024/01/15 07:31:15;;;;;;;23.15;12.55;;;;;;;;;;5094296;28;20039;-60
2024/01/15 07:33:41;;;;;;;21.90;12.55;;;;;;;;;;5091911;28;20518;-60
2024/01/15 07:36:07;;;;;;;24.15;12.35;;;;;;;;;;5093608;28;20028;-62
2024/01/15 07:38:32;;;;;;;25.73;12.20;;;;;;;;;;5092830;28;20094;-60
2024/01/15 07:40:58;;;;;;;27.77;12.13;;;;;;;;;;5074986;28;20036;-62
2024/01/15 07:43:24;;;;;;;22.67;12.13;;;;;;;;;;5093782;28;20078;-59
2024/01/15 07:45:49;;;;;;;22.67;11.85;;;;;;;;;;5075154;28;20126;-61
2024/01/15 07:48:15;;;;;;;23.92;12.50;;;;;;;;;;5093865;28;20039;-59
2024/01/15 07:50:40;;;;;;;24.77;12.82;;;;;;;;;;5093551;28;20085;-61
2024/01/15 07:53:06;;;;;;;23.85;13.02;;;;;;;;;;5092874;28;20036;-60
2024/01/15 07:55:32;;;;;;;25.10;12.88;;;;;;;;;;5093205;28;20032;-61
2024/01/15 07:57:59;;;;;;;22.83;12.07;;;;;;;;;;5092501;28;20082;-64
2024/01/15 08:00:25;;;;;;;23.90;12.90;;;;;;;;;;5091716;28;20032;-60
2024/01/15 08:02:51;;;;;;;23.17;12.30;;;;;;;;;;5091680;28;20074;-61
2024/01/15 08:05:16;;;;;;;22.20;12.60;;;;;;;;;;5092098;28;20036;-59
2024/01/15 08:07:42;;;;;;;26.38;12.25;;;;;;;;;;5091793;28;20414;-62
2024/01/15 08:10:07;;;;;;;21.48;12.18;;;;;;;;;;5093185;28;20081;-61
2024/01/15 08:12:33;;;;;;;26.85;12.85;;;;;;;;;;5091717;28;20119;-61
2024/01/15 08:14:59;;;;;;;27.33;13.57;;;;;;;;;;5091910;28;20062;-61
2024/01/15 08:17:28;;;;;;;26.83;12.32;;;;;;;;;;5091381;28;20069;-61
2024/01/15 08:19:54;;;;;;;22.67;12.02;;;;;;;;;;5080799;28;20036;-63
2024/01/15 08:22:19;;;;;;;25.95;14.77;;;;;;;;;;5091902;28;20031;-62
2024/01/15 08:24:45;;;;;;;25.83;12.68;;;;;;;;;;5091508;28;20084;-61
2024/01/15 08:27:11;;;;;;;22.85;12.57;;;;;;;;;;5092905;28;20485;-61
2024/01/15 08:29:37;;;;;;;22.95;11.98;;;;;;;;;;5074695;28;20481;-61
2024/01/15 08:32:02;;;;;;;24.15;12.02;;;;;;;;;;5093087;28;20481;-62
2024/01/15 08:34:28;;;;;;;22.42;11.80;;;;;;;;;;5092183;28;20047;-59
2024/01/15 08:36:54;;;;;;;23.77;12.98;;;;;;;;;;5092869;28;20039;-62
2024/01/15 08:39:19;;;;;;;24.10;13.15;;;;;;;;;;5091577;28;20048;-62
2024/01/15 08:41:46;;;;;;;19.33;11.63;;;;;;;;;;5091395;28;20044;-60
2024/01/15 08:44:12;;;;;;;25.55;13.65;;;;;;;;;;5092745;28;20032;-61
2024/01/15 08:46:38;;;;;;;24.98;12.80;;;;;;;;;;5092337;28;20402;-62
2024/01/15 08:49:03;;;;;;;19.55;11.35;;;;;;;;;;5092532;28;20036;-61
2024/01/15 08:51:29;;;;;;;23.80;12.70;;;;;;;;;;5090829;28;20122;-61
2024/01/15 08:53:58;;;;;;;22.88;13.02;;;;;;;;;;5092640;28;20044;-60
2024/01/15 08:56:24;;;;;;;22.63;12.43;;;;;;;;;;5092177;28;20032;-60
2024/01/15 08:58:50;;;;;;;21.92;11.50;;;;;;;;;;5092253;28;20045;-60
2024/01/15 09:01:15;;;;;;;23.48;11.20;;;;;;;;;;5091863;28;20130;-59
2024/01/15 09:03:44;;;;;;;19.30;10.82;;;;;;;;;;5091146;28;20459;-60
2024/01/15 09:06:10;;;;;;;20.92;11.40;;;;;;;;;;5090436;28;20028;-61
2024/01/15 09:08:36;;;;;;;21.05;10.70;;;;;;;;;;5092131;28;20105;-61
2024/01/15 09:11:03;;;;;;;17.98;9.93;;;;;;;;;;5091324;28;20505;-63
2024/01/15 09:13:29;;;;;;;23.50;12.52;;;;;;;;;;5091180;28;20082;-62
2024/01/15 09:15:54;;;;;;;22.52;11.70;;;;;;;;;;5091302;28;20144;-60
2024/01/15 09:18:20;;;;;;;19.60;11.07;;;;;;;;;;5090502;28;20131;-62
2024/01/15 09:20:46;;;;;;;22.60;11.75;;;;;;;;;;5091462;28;20048;-63
2024/01/15 09:23:12;;;;;;;19.17;10.25;;;;;;;;;;5091700;28;20066;-63
2024/01/15 09:25:37;;;;;;;23.88;11.52;;;;;;;;;;5079717;28;20040;-62
2024/01/15 09:28:03;;;;;;;18.98;10.98;;;;;;;;;;5070290;28;20062;-63
2024/01/15 09:30:29;;;;;;;21.80;11.27;;;;;;;;;;5077892;28;20028;-64
2024/01/15 09:32:54;;;;;;;26.75;12.43;;;;;;;;;;5090622;28;20040;-63
2024/01/15 09:35:20;;;;;;;23.27;12.38;;;;;;;;;;5089842;28;20066;-61
2024/01/15 09:37:46;;;;;;;23.38;11.63;;;;;;;;;;5090177;28;20028;-62
2024/01/15 09:40:14;;;;;;;17.00;10.68;;;;;;;;;;5088430;28;20036;-62
2024/01/15 09:42:40;;;;;;;18.02;10.77;;;;;;;;;;5090561;28;20043;-62
2024/01/15 09:45:06;;;;;;;21.05;11.68;;;;;;;;;;5091058;28;20045;-63
2024/01/15 09:47:31;;;;;;;21.27;12.05;;;;;;;;;;5091367;28;20040;-64
2024/01/15 09:49:58;;;;;;;18.30;11.55;;;;;;;;;;5091544;28;20066;-62
2024/01/15 09:52:24;;;;;;;22.70;11.20;;;;;;;;;;5091133;28;20114;-63
2024/01/15 09:54:50;;;;;;;19.23;11.35;;;;;;;;;;5091479;28;20032;-62
2024/01/15 09:57:16;;;;;;;19.42;11.05;;;;;;;;;;5091564;28;20032;-63
2024/01/15 09:59:42;;;;;;;24.05;12.68;;;;;;;;;;5091008;28;20463;-62
2024/01/15 10:02:13;;;;;;;21.60;11.95;;;;;;;;;;5090625;28;20047;-64
2024/01/15 10:04:38;;;;;;;19.42;10.45;;;;;;;;;;5091548;28;20035;-63
2024/01/15 10:07:05;;;;;;;20.40;11.10;;;;;;;;;;5089630;28;20048;-63
2024/01/15 10:09:30;;;;;;;25.02;11.77;;;;;;;;;;5089757;28;20502;-60
2024/01/15 10:11:56;;;;;;;21.25;11.35;;;;;;;;;;5091071;28;20104;-59
2024/01/15 10:14:22;;;;;;;21.55;11.50;;;;;;;;;;5089873;28;20043;-60
2024/01/15 10:16:47;;;;;;;19.27;11.57;;;;;;;;;;5089969;28;20028;-64
2024/01/15 10:19:13;;;;;;;17.73;10.30;;;;;;;;;;5083184;28;20397;-62
2024/01/15 10:21:38;;;;;;;24.20;12.15;;;;;;;;;;5090046;28;20040;-63
2024/01/15 10:24:04;;;;;;;21.00;11.23;;;;;;;;;;5091313;28;20036;-62
2024/01/15 10:26:30;;;;;;;20.42;11.02;;;;;;;;;;5093903;28;20043;-64
2024/01/15 10:28:58;;;;;;;24.48;11.35;;;;;;;;;;5093747;28;20437;-63
2024/01/15 10:31:23;;;;;;;23.73;11.77;;;;;;;;;;5093826;28;20450;-64
2024/01/15 10:33:49;;;;;;;21.48;11.00;;;;;;;;;;5093699;28;20036;-63
2024/01/15 10:36:15;;;;;;;24.95;11.93;;;;;;;;;;5095025;28;20078;-64
2024/01/15 10:38:41;;;;;;;20.70;11.52;;;;;;;;;;5093642;28;20040;-62
2024/01/15 10:41:07;;;;;;;21.63;11.95;;;;;;;;;;5094097;28;20089;-64
2024/01/15 10:43:35;;;;;;;23.05;11.98;;;;;;;;;;5096801;28;20434;-63
2024/01/15 10:46:02;;;;;;;21.48;10.93;;;;;;;;;;5090940;28;20099;-62
2024/01/15 10:48:30;;;;;;;22.70;11.90;;;;;;;;;;5094515;28;20075;-63
2024/01/15 10:50:56;;;;;;;17.70;10.20;;;;;;;;;;5093905;28;20028;-61
2024/01/15 10:53:22;;;;;;;19.95;11.50;;;;;;;;;;5094594;28;20427;-63
2024/01/15 10:55:48;;;;;;;22.02;11.20;;;;;;;;;;5094647;28;20081;-63
2024/01/15 10:58:14;;;;;;;18.67;11.05;;;;;;;;;;5094652;28;20044;-62
2024/01/15 11:00:40;;;;;;;23.40;11.70;;;;;;;;;;5092366;28;20040;-64
2024/01/15 11:03:06;;;;;;;20.52;11.05;;;;;;;;;;5060804;28;20043;-62
2024/01/15 11:05:45;;;;;;;20.17;10.80;;;;;;;;;;5074442;28;20032;-63
2024/01/15 11:08:13;;;;;;;21.70;11.27;;;;;;;;;;5092389;28;20067;-62
2024/01/15 11:10:46;;;;;;;20.58;10.55;;;;;;;;;;5094064;28;20032;-62
2024/01/15 11:13:15;;;;;;;21.40;10.88;;;;;;;;;;5094605;28;20047;-62
2024/01/15 11:15:59;;;;;;;21.02;11.02;;;;;;;;;;5093964;28;20111;-63
2024/01/15 11:18:29;;;;;;;21.60;11.23;;;;;;;;;;5084447;28;20091;-63
2024/01/15 11:21:13;;;;;;;21.30;10.27;;;;;;;;;;5077077;28;20047;-62
2024/01/15 11:23:42;;;;;;;22.80;10.32;;;;;;;;;;5094260;28;20044;-62
2024/01/15 11:26:26;;;;;;;24.10;11.07;;;;;;;;;;5094029;28;20119;-63
2024/01/15 11:28:52;;;;;;;18.20;10.50;;;;;;;;;;5092831;28;20032;-63
2024/01/15 11:31:18;;;;;;;21.15;11.13;;;;;;;;;;5093887;28;20520;-64
2024/01/15 11:33:50;;;;;;;18.02;10.43;;;;;;;;;;5093148;28;20040;-63
2024/01/15 11:36:15;;;;;;;20.08;11.40;;;;;;;;;;5093137;28;20071;-61
2024/01/15 11:38:41;;;;;;;20.63;11.98;;;;;;;;;;5092131;28;20072;-62
2024/01/15 11:41:16;;;;;;;21.40;11.80;;;;;;;;;;5093474;28;20050;-65
2024/01/15 11:43:42;;;;;;;23.70;10.88;;;;;;;;;;5092596;28;20047;-63
2024/01/15 11:46:11;;;;;;;21.92;11.27;;;;;;;;;;5093437;28;20039;-62
2024/01/15 11:48:43;;;;;;;24.15;12.18;;;;;;;;;;5093871;28;20032;-62
2024/01/15 11:51:11;;;;;;;19.23;11.25;;;;;;;;;;5092929;28;20043;-64
2024/01/15 11:53:39;;;;;;;22.85;11.30;;;;;;;;;;5093734;28;20115;-61
2024/01/15 11:56:10;;;;;;;18.17;10.75;;;;;;;;;;5092107;28;20043;-62
2024/01/15 11:58:37;;;;;;;22.83;11.98;;;;;;;;;;5075001;28;20028;-63
2024/01/15 12:01:03;;;;;;;22.52;11.93;;;;;;;;;;5093147;28;20043;-62
2024/01/15 12:03:32;;;;;;;19.30;9.85;;;;;;;;;;5093663;28;20032;-63
2024/01/15 12:05:59;;;;;;;20.15;11.30;;;;;;;;;;5093096;28;20112;-62
2024/01/15 12:08:27;;;;;;;21.13;10.45;;;;;;;;;;5092975;28;20055;-63
2024/01/15 12:10:52;;;;;;;20.13;11.30;;;;;;;;;;5093199;28;20113;-64
2024/01/15 12:13:19;;;;;;;22.63;12.63;;;;;;;;;;5091877;28;20040;-62
2024/01/15 12:15:45;;;;;;;21.40;11.80;;;;;;;;;;5093084;28;20028;-64
2024/01/15 12:18:15;;;;;;;26.02;13.00;;;;;;;;;;5084923;28;20062;-63
2024/01/15 12:20:42;;;;;;;21.00;10.95;;;;;;;;;;5076942;28;20040;-62
2024/01/15 12:23:08;;;;;;;22.52;11.52;;;;;;;;;;5093220;28;20035;-63
2024/01/15 12:25:33;;;;;;;22.25;11.60;;;;;;;;;;5091458;28;20036;-63
2024/01/15 12:28:00;;;;;;;20.42;11.52;;;;;;;;;;5092451;28;20036;-62
2024/01/15 12:30:26;;;;;;;19.08;10.95;;;;;;;;;;5092422;28;20073;-63
2024/01/15 12:32:51;;;;;;;21.10;12.00;;;;;;;;;;5092486;28;20036;-63
2024/01/15 12:35:17;;;;;;;22.30;11.25;;;;;;;;;;5092668;28;20426;-62
2024/01/15 12:37:43;;;;;;;25.58;12.15;;;;;;;;;;5092401;28;20028;-62
2024/01/15 12:40:09;;;;;;;19.35;11.82;;;;;;;;;;5091985;28;20390;-62
2024/01/15 12:42:41;;;;;;;22.98;12.35;;;;;;;;;;5090874;28;20489;-63
2024/01/15 12:45:08;;;;;;;29.52;11.70;;;;;;;;;;5091652;28;20036;-62
2024/01/15 12:47:33;;;;;;;23.35;11.85;;;;;;;;;;5092340;28;20035;-63
2024/01/15 12:49:59;;;;;;;20.27;12.02;;;;;;;;;;5092721;28;20043;-62
2024/01/15 12:52:29;;;;;;;21.00;11.90;;;;;;;;;;5090020;28;20024;-61
2024/01/15 12:54:54;;;;;;;24.98;12.35;;;;;;;;;;5086617;28;20409;-60
2024/01/15 12:57:20;;;;;;;20.52;11.82;;;;;;;;;;5091187;28;20032;-64
2024/01/15 12:59:46;;;;;;;24.92;12.80;;;;;;;;;;5089306;28;20032;-61
2024/01/15 13:02:13;;;;;;;21.13;12.43;;;;;;;;;;5090697;28;20040;-63
2024/01/15 13:04:38;;;;;;;21.83;11.68;;;;;;;;;;5090256;28;20032;-61
2024/01/15 13:07:05;;;;;;;24.40;12.25;;;;;;;;;;5091103;28;20524;-61
2024/01/15 13:09:30;;;;;;;25.33;12.27;;;;;;;;;;5089371;28;20036;-61
2024/01/15 13:11:56;;;;;;;26.60;12.45;;;;;;;;;;5091116;28;20043;-63
2024/01/15 13:14:21;;;;;;;21.30;11.30;;;;;;;;;;5090184;28;20414;-62
2024/01/15 13:16:48;;;;;;;26.90;12.80;;;;;;;;;;5090226;28;20162;-63
2024/01/15 13:19:13;;;;;;;22.35;11.18;;;;;;;;;;5090929;28;20493;-62
2024/01/15 13:21:40;;;;;;;25.00;12.77;;;;;;;;;;5090969;28;20043;-63
2024/01/15 13:24:06;;;;;;;24.63;12.55;;;;;;;;;;5091930;28;20047;-63
2024/01/15 13:26:32;;;;;;;22.05;11.88;;;;;;;;;;5090934;28;20024;-61
2024/01/15 13:28:59;;;;;;;23.20;12.10;;;;;;;;;;5090075;28;20040;-62
2024/01/15 13:31:24;;;;;;;25.80;12.82;;;;;;;;;;5089770;28;20520;-61
2024/01/15 13:33:50;;;;;;;21.92;11.88;;;;;;;;;;5090185;28;20044;-62
2024/01/15 13:36:16;;;;;;;24.25;12.75;;;;;;;;;;5087796;28;20036;-58
2024/01/15 13:38:41;;;;;;;28.08;14.07;;;;;;;;;;5086925;28;20024;-59
2024/01/15 13:41:07;;;;;;;24.20;12.75;;;;;;;;;;5087946;28;20048;-61
2024/01/15 13:43:33;;;;;;;22.00;11.45;;;;;;;;;;5086671;28;20366;-61
2024/01/15 13:45:59;;;;;;;22.83;12.77;;;;;;;;;;5088560;28;20031;-62
2024/01/15 13:48:24;;;;;;;24.63;12.75;;;;;;;;;;5089154;28;20258;-60
2024/01/15 13:50:50;;;;;;;26.77;13.02;;;;;;;;;;5089138;28;20027;-63
2024/01/15 13:53:16;;;;;;;28.65;13.07;;;;;;;;;;5069638;28;20510;-59
2024/01/15 13:55:42;;;;;;;29.27;12.82;;;;;;;;;;5089197;28;20126;-61
2024/01/15 13:58:07;;;;;;;27.20;12.90;;;;;;;;;;5090817;28;20051;-60
2024/01/15 14:00:33;;;;;;;26.38;12.20;;;;;;;;;;5090134;28;20082;-61
2024/01/15 14:02:59;;;;;;;23.70;12.07;;;;;;;;;;5090345;28;20043;-61
2024/01/15 14:05:24;;;;;;;23.52;12.25;;;;;;;;;;5090983;28;20042;-61
2024/01/15 14:07:50;;;;;;;24.27;13.95;;;;;;;;;;5090848;28;20139;-62
2024/01/15 14:10:16;;;;;;;23.20;12.07;;;;;;;;;;5077092;28;20028;-62
2024/01/15 14:12:41;;;;;;;24.58;12.80;;;;;;;;;;5086360;28;20028;-61